createdAt,value
2017-05-17T00:00:07.096Z,8.00
2017-05-17T00:02:35.916Z,8.08
2017-05-17T00:05:04.731Z,7.78
2017-05-17T00:07:33.564Z,7.50
2017-05-17T00:10:02.392Z,7.36
2017-05-17T00:12:31.224Z,9.56
2017-05-17T00:15:00.060Z,6.50
2017-05-17T00:17:28.894Z,8.86
2017-05-17T00:19:58.194Z,8.48
2017-05-17T00:22:27.012Z,8.10
2017-05-17T00:24:55.932Z,7.74
2017-05-17T00:27:25.502Z,7.58
2017-05-17T00:29:54.330Z,8.54
2017-05-17T00:32:23.904Z,8.32
2017-05-17T00:34:52.730Z,9.76
2017-05-17T00:37:33.640Z,8.34
2017-05-17T00:40:14.208Z,10.74
2017-05-17T00:42:54.983Z,9.90
2017-05-17T00:45:35.593Z,8.68
2017-05-17T00:48:16.546Z,8.64
2017-05-17T00:50:57.143Z,9.04
2017-05-17T00:53:25.997Z,9.72
2017-05-17T00:55:54.836Z,10.08
2017-05-17T00:58:23.687Z,10.92
2017-05-17T01:00:52.528Z,7.60
2017-05-17T01:03:21.352Z,9.46
2017-05-17T01:05:50.215Z,9.92
2017-05-17T01:08:19.051Z,10.40
2017-05-17T01:10:47.887Z,9.70
2017-05-17T01:13:16.736Z,8.08
2017-05-17T01:15:45.603Z,9.38
2017-05-17T01:18:14.762Z,9.98
2017-05-17T01:20:43.575Z,7.90
2017-05-17T01:23:12.418Z,11.96
2017-05-17T01:25:41.249Z,9.12
2017-05-17T01:28:10.099Z,9.26
2017-05-17T01:30:38.919Z,9.24
2017-05-17T01:33:07.770Z,10.50
2017-05-17T01:35:36.602Z,9.80
2017-05-17T01:38:05.424Z,9.84
2017-05-17T01:40:34.252Z,8.08
2017-05-17T01:43:03.080Z,9.20
2017-05-17T01:45:32.268Z,15.10
2017-05-17T01:48:01.084Z,11.46
2017-05-17T01:50:29.931Z,9.86
2017-05-17T01:52:58.772Z,9.46
2017-05-17T01:55:27.611Z,12.58
2017-05-17T01:57:56.451Z,10.72
2017-05-17T02:00:25.276Z,9.68
2017-05-17T02:02:54.133Z,9.72
2017-05-17T02:05:22.962Z,10.84
2017-05-17T02:07:51.819Z,10.32
2017-05-17T02:10:20.644Z,11.10
2017-05-17T02:12:49.480Z,10.20
2017-05-17T02:15:18.316Z,9.52
2017-05-17T02:17:47.135Z,10.48
2017-05-17T02:20:15.996Z,11.04
2017-05-17T02:22:44.864Z,10.88
2017-05-17T02:25:13.691Z,10.56
2017-05-17T02:27:42.532Z,9.56
2017-05-17T02:30:11.386Z,10.92
2017-05-17T02:32:40.243Z,11.62
2017-05-17T02:35:09.219Z,10.72
2017-05-17T02:37:38.794Z,10.40
2017-05-17T02:40:07.630Z,7.84
2017-05-17T02:42:36.511Z,10.84
2017-05-17T02:45:05.347Z,9.20
2017-05-17T02:47:34.184Z,9.76
2017-05-17T02:50:03.018Z,10.28
2017-05-17T02:52:31.856Z,10.64
2017-05-17T02:55:01.432Z,29.34
2017-05-17T02:57:30.274Z,13.04
2017-05-17T02:59:59.122Z,11.88
2017-05-17T03:02:28.009Z,12.44
2017-05-17T03:04:56.911Z,10.72
2017-05-17T03:07:26.486Z,11.30
2017-05-17T03:09:55.387Z,12.52
2017-05-17T03:12:24.233Z,12.76
2017-05-17T03:14:53.162Z,12.34
2017-05-17T03:17:21.999Z,12.30
2017-05-17T03:19:50.892Z,13.80
2017-05-17T03:22:19.735Z,14.18
2017-05-17T03:24:48.582Z,13.68
2017-05-17T03:27:17.425Z,13.36
2017-05-17T03:29:46.468Z,11.98
2017-05-17T03:32:15.327Z,14.60
2017-05-17T03:34:44.161Z,12.70
2017-05-17T03:37:12.992Z,12.68
2017-05-17T03:39:41.838Z,13.48
2017-05-17T03:42:10.677Z,11.64
2017-05-17T03:44:39.515Z,10.04
2017-05-17T03:47:08.570Z,14.26
2017-05-17T03:49:37.412Z,15.32
2017-05-17T03:52:06.265Z,14.84
2017-05-17T03:54:35.113Z,13.18
2017-05-17T03:57:03.952Z,13.90
2017-05-17T03:59:32.787Z,15.74
2017-05-17T04:02:01.652Z,14.48
2017-05-17T04:04:30.822Z,14.12
2017-05-17T04:06:59.675Z,13.10
2017-05-17T04:09:28.544Z,12.52
2017-05-17T04:11:57.378Z,11.04
2017-05-17T04:14:26.232Z,10.02
2017-05-17T04:16:55.076Z,12.24
2017-05-17T04:19:23.928Z,11.28
2017-05-17T04:21:52.767Z,15.06
2017-05-17T04:24:21.603Z,12.22
2017-05-17T04:26:50.470Z,13.74
2017-05-17T04:29:19.329Z,12.44
2017-05-17T04:31:48.187Z,13.28
2017-05-17T04:34:17.084Z,10.80
2017-05-17T04:36:45.920Z,16.28
2017-05-17T04:39:14.766Z,15.14
2017-05-17T04:41:43.595Z,13.96
2017-05-17T04:44:12.425Z,12.18
2017-05-17T04:46:41.275Z,14.74
2017-05-17T04:49:10.103Z,12.48
2017-05-17T04:51:38.954Z,11.40
2017-05-17T04:54:07.798Z,11.42
2017-05-17T04:56:36.666Z,12.80
2017-05-17T04:59:05.506Z,10.46
2017-05-17T05:01:34.330Z,13.12
2017-05-17T05:04:03.167Z,11.58
2017-05-17T05:06:32.018Z,12.78
2017-05-17T05:09:00.855Z,11.76
2017-05-17T05:11:29.679Z,13.18
2017-05-17T05:13:58.527Z,9.82
2017-05-17T05:16:27.355Z,9.66
2017-05-17T05:18:56.184Z,11.64
2017-05-17T05:21:25.031Z,12.78
2017-05-17T05:23:53.876Z,8.14
2017-05-17T05:26:22.711Z,9.38
2017-05-17T05:28:51.583Z,8.54
2017-05-17T05:31:20.442Z,8.80
2017-05-17T05:33:49.385Z,10.36
2017-05-17T05:36:18.270Z,9.52
2017-05-17T05:38:47.103Z,8.44
2017-05-17T05:41:15.923Z,9.74
2017-05-17T05:43:44.776Z,6.44
2017-05-17T05:46:13.583Z,9.18
2017-05-17T05:48:42.439Z,9.72
2017-05-17T05:51:11.290Z,8.18
2017-05-17T05:53:40.136Z,8.78
2017-05-17T05:56:08.988Z,11.08
2017-05-17T05:58:37.816Z,9.26
2017-05-17T06:01:06.632Z,7.98
2017-05-17T06:03:35.473Z,10.36
2017-05-17T06:06:04.300Z,9.98
2017-05-17T06:08:33.149Z,9.90
2017-05-17T06:11:01.216Z,8.40
2017-05-17T06:13:30.044Z,9.08
2017-05-17T06:15:58.880Z,9.62
2017-05-17T06:18:27.722Z,8.10
2017-05-17T06:20:56.584Z,7.32
2017-05-17T06:23:25.404Z,6.92
2017-05-17T06:25:54.240Z,4.92
2017-05-17T06:28:23.104Z,6.44
2017-05-17T06:30:51.955Z,6.16
2017-05-17T06:33:21.547Z,6.64
2017-05-17T06:35:50.405Z,6.50
2017-05-17T06:38:19.300Z,7.00
2017-05-17T06:40:48.415Z,6.18
2017-05-17T06:43:17.313Z,6.56
2017-05-17T06:45:46.160Z,8.76
2017-05-17T06:48:14.983Z,6.58
2017-05-17T06:50:43.813Z,7.16
2017-05-17T06:53:12.870Z,7.62
2017-05-17T06:55:41.701Z,6.70
2017-05-17T06:58:10.529Z,7.16
2017-05-17T07:00:39.367Z,8.28
2017-05-17T07:03:08.196Z,7.58
2017-05-17T07:05:37.048Z,6.70
2017-05-17T07:08:05.859Z,6.74
2017-05-17T07:10:34.723Z,6.36
2017-05-17T07:13:03.560Z,10.44
2017-05-17T07:15:32.404Z,7.34
2017-05-17T07:18:01.250Z,5.26
2017-05-17T07:20:30.069Z,5.84
2017-05-17T07:22:58.913Z,5.52
2017-05-17T07:25:27.745Z,5.44
2017-05-17T07:27:56.568Z,5.32
2017-05-17T07:30:25.397Z,6.72
2017-05-17T07:32:54.258Z,6.08
2017-05-17T07:35:23.107Z,5.62
2017-05-17T07:37:51.928Z,5.20
2017-05-17T07:40:20.756Z,6.38
2017-05-17T07:42:49.609Z,6.82
2017-05-17T07:45:18.427Z,7.86
2017-05-17T07:47:47.271Z,5.28
2017-05-17T07:50:16.105Z,5.34
2017-05-17T07:52:44.948Z,6.08
2017-05-17T07:55:13.794Z,5.56
2017-05-17T07:57:42.633Z,5.56
2017-05-17T08:00:11.683Z,4.70
2017-05-17T08:02:40.495Z,5.00
2017-05-17T08:05:09.334Z,6.90
2017-05-17T08:07:38.165Z,5.38
2017-05-17T08:10:07.011Z,5.08
2017-05-17T08:12:35.870Z,5.66
2017-05-17T08:15:04.696Z,6.04
2017-05-17T08:17:33.518Z,7.62
2017-05-17T08:20:02.353Z,6.84
2017-05-17T08:22:31.176Z,8.00
2017-05-17T08:25:00.030Z,5.12
2017-05-17T08:27:28.871Z,11.72
2017-05-17T08:29:57.722Z,4.70
2017-05-17T08:32:26.564Z,6.08
2017-05-17T08:34:55.397Z,8.26
2017-05-17T08:37:24.242Z,5.18
2017-05-17T08:39:53.061Z,5.68
2017-05-17T08:42:21.899Z,5.22
2017-05-17T08:44:50.729Z,5.56
2017-05-17T08:47:19.549Z,5.40
2017-05-17T08:49:48.407Z,5.54
2017-05-17T08:52:17.261Z,5.50
2017-05-17T08:54:46.103Z,10.32
2017-05-17T08:57:14.939Z,5.30
2017-05-17T08:59:43.787Z,4.16
2017-05-17T09:02:12.617Z,5.40
2017-05-17T09:04:41.435Z,7.40
2017-05-17T09:07:10.286Z,4.28
2017-05-17T09:09:39.109Z,4.54
2017-05-17T09:12:07.930Z,5.32
2017-05-17T09:14:36.770Z,4.56
2017-05-17T09:17:05.584Z,5.12
2017-05-17T09:19:34.454Z,4.62
2017-05-17T09:22:03.282Z,4.94
2017-05-17T09:24:32.113Z,4.14
2017-05-17T09:27:00.967Z,3.92
2017-05-17T09:29:29.783Z,6.84
2017-05-17T09:31:58.666Z,5.02
2017-05-17T09:34:27.485Z,4.62
2017-05-17T09:36:56.307Z,5.28
2017-05-17T09:39:25.537Z,4.40
2017-05-17T09:41:54.367Z,5.22
2017-05-17T09:44:23.208Z,6.04
2017-05-17T09:46:52.039Z,4.76
2017-05-17T09:49:20.855Z,5.32
2017-05-17T09:51:49.708Z,4.70
2017-05-17T09:54:18.555Z,4.86
2017-05-17T09:56:47.387Z,4.52
2017-05-17T09:59:16.232Z,4.46
2017-05-17T10:01:45.083Z,5.16
2017-05-17T10:04:13.903Z,3.86
2017-05-17T10:06:42.730Z,4.08
2017-05-17T10:09:11.562Z,4.44
2017-05-17T10:11:40.391Z,4.56
2017-05-17T10:14:09.222Z,3.84
2017-05-17T10:16:38.045Z,4.18
2017-05-17T10:19:06.879Z,4.34
2017-05-17T10:21:35.726Z,3.96
2017-05-17T10:24:04.564Z,4.34
2017-05-17T10:26:33.421Z,4.46
2017-05-17T10:29:02.647Z,4.48
2017-05-17T10:31:31.479Z,4.70
2017-05-17T10:34:00.330Z,3.90
2017-05-17T10:36:29.155Z,4.34
2017-05-17T10:38:58.008Z,3.24
2017-05-17T10:41:26.847Z,4.76
2017-05-17T10:43:55.697Z,4.14
2017-05-17T10:46:24.550Z,4.34
2017-05-17T10:48:53.381Z,3.70
2017-05-17T10:51:22.183Z,3.68
2017-05-17T10:53:51.041Z,3.66
2017-05-17T10:56:19.885Z,3.32
2017-05-17T10:58:48.726Z,4.26
2017-05-17T11:01:17.596Z,3.92
2017-05-17T11:03:46.413Z,4.32
2017-05-17T11:06:15.258Z,4.18
2017-05-17T11:08:44.084Z,3.44
2017-05-17T11:11:12.928Z,4.14
2017-05-17T11:13:41.778Z,3.78
2017-05-17T11:16:10.604Z,3.50
2017-05-17T11:18:39.435Z,3.44
2017-05-17T11:21:08.280Z,4.10
2017-05-17T11:23:37.111Z,3.62
2017-05-17T11:26:05.962Z,3.60
2017-05-17T11:28:34.781Z,5.50
2017-05-17T11:31:03.609Z,5.34
2017-05-17T11:33:32.425Z,3.54
2017-05-17T11:36:01.290Z,4.06
2017-05-17T11:38:30.135Z,4.20
2017-05-17T11:40:58.965Z,4.20
2017-05-17T11:43:27.819Z,4.42
2017-05-17T11:45:56.643Z,4.08
2017-05-17T11:48:25.507Z,4.42
2017-05-17T11:50:57.343Z,4.32
2017-05-17T11:53:26.296Z,4.12
2017-05-17T11:55:55.157Z,4.12
2017-05-17T11:58:24.043Z,4.02
2017-05-17T12:00:52.881Z,4.00
2017-05-17T12:03:21.743Z,5.84
2017-05-17T12:05:50.831Z,5.16
2017-05-17T12:08:20.046Z,4.30
2017-05-17T12:10:48.859Z,4.34
2017-05-17T12:13:17.704Z,3.88
2017-05-17T12:15:46.523Z,4.58
2017-05-17T12:18:15.396Z,3.16
2017-05-17T12:20:44.212Z,3.40
2017-05-17T12:23:13.031Z,7.44
2017-05-17T12:25:41.887Z,3.62
2017-05-17T12:28:10.731Z,3.40
2017-05-17T12:30:39.581Z,3.70
2017-05-17T12:33:08.415Z,4.40
2017-05-17T12:35:37.232Z,3.96
2017-05-17T12:38:06.091Z,4.20
2017-05-17T12:40:34.920Z,3.60
2017-05-17T12:43:03.764Z,3.70
2017-05-17T12:45:32.630Z,3.78
2017-05-17T12:48:01.451Z,4.36
2017-05-17T12:50:30.301Z,3.98
2017-05-17T12:52:59.115Z,8.26
2017-05-17T12:55:27.973Z,4.30
2017-05-17T12:57:56.798Z,4.00
2017-05-17T13:00:25.623Z,3.90
2017-05-17T13:02:54.451Z,3.68
2017-05-17T13:05:23.273Z,3.58
2017-05-17T13:07:52.117Z,3.18
2017-05-17T13:10:20.958Z,3.36
2017-05-17T13:12:49.790Z,3.36
2017-05-17T13:15:18.617Z,3.32
2017-05-17T13:17:47.459Z,3.60
2017-05-17T13:20:16.319Z,4.22
2017-05-17T13:22:45.680Z,3.88
2017-05-17T13:25:14.497Z,3.78
2017-05-17T13:27:43.347Z,6.26
2017-05-17T13:30:12.169Z,3.22
2017-05-17T13:32:41.024Z,3.30
2017-05-17T13:35:09.847Z,2.68
2017-05-17T13:37:38.673Z,2.70
2017-05-17T13:40:07.505Z,3.42
2017-05-17T13:42:36.326Z,3.62
2017-05-17T13:45:05.173Z,5.20
2017-05-17T13:47:33.995Z,4.94
2017-05-17T13:50:02.834Z,3.70
2017-05-17T13:52:31.668Z,3.58
2017-05-17T13:55:00.520Z,3.72
2017-05-17T13:57:29.380Z,3.34
2017-05-17T13:59:58.224Z,3.26
2017-05-17T14:02:27.068Z,3.66
2017-05-17T14:04:55.903Z,3.78
2017-05-17T14:07:24.751Z,3.60
2017-05-17T14:09:53.599Z,3.84
2017-05-17T14:12:22.497Z,3.24
2017-05-17T14:14:51.278Z,3.24
2017-05-17T14:17:20.105Z,3.00
2017-05-17T14:19:48.935Z,2.64
2017-05-17T14:22:17.791Z,2.90
2017-05-17T14:24:46.637Z,3.28
2017-05-17T14:27:15.463Z,3.58
2017-05-17T14:29:44.293Z,4.00
2017-05-17T14:32:13.115Z,3.56
2017-05-17T14:34:41.972Z,3.76
2017-05-17T14:37:10.809Z,3.82
2017-05-17T14:39:39.631Z,4.02
2017-05-17T14:42:08.467Z,2.92
2017-05-17T14:44:37.301Z,3.36
2017-05-17T14:47:06.131Z,3.36
2017-05-17T14:49:34.968Z,2.96
2017-05-17T14:52:03.813Z,10.16
2017-05-17T14:54:32.644Z,3.40
2017-05-17T14:57:01.469Z,3.54
2017-05-17T14:59:30.316Z,6.54
2017-05-17T15:01:59.142Z,4.12
2017-05-17T15:04:27.999Z,3.42
2017-05-17T15:06:57.085Z,3.54
2017-05-17T15:09:25.884Z,2.74
2017-05-17T15:11:54.715Z,5.34
2017-05-17T15:14:24.418Z,3.50
2017-05-17T15:16:53.301Z,2.80
2017-05-17T15:19:22.133Z,2.90
2017-05-17T15:21:51.043Z,3.14
2017-05-17T15:24:19.981Z,3.04
2017-05-17T15:26:49.667Z,4.02
2017-05-17T15:29:18.523Z,3.08
2017-05-17T15:31:47.348Z,2.76
2017-05-17T15:34:16.184Z,3.32
2017-05-17T15:36:45.012Z,2.96
2017-05-17T15:39:13.825Z,3.00
2017-05-17T15:41:42.677Z,2.88
2017-05-17T15:44:11.497Z,2.42
2017-05-17T15:46:40.325Z,2.30
2017-05-17T15:49:09.153Z,3.04
2017-05-17T15:51:37.968Z,5.46
2017-05-17T15:54:06.800Z,3.04
2017-05-17T15:56:35.620Z,2.80
2017-05-17T15:59:04.444Z,4.00
2017-05-17T16:01:33.281Z,3.00
2017-05-17T16:04:02.098Z,3.76
2017-05-17T16:06:30.919Z,8.36
2017-05-17T16:08:59.774Z,4.24
2017-05-17T16:11:28.591Z,2.62
2017-05-17T16:13:57.449Z,3.60
2017-05-17T16:16:26.280Z,3.08
2017-05-17T16:18:55.110Z,3.70
2017-05-17T16:21:23.945Z,3.32
2017-05-17T16:23:52.792Z,3.88
2017-05-17T16:26:21.640Z,4.78
2017-05-17T16:28:50.483Z,5.82
2017-05-17T16:31:19.315Z,4.12
2017-05-17T16:33:48.145Z,4.12
2017-05-17T16:36:16.960Z,6.72
2017-05-17T16:38:46.654Z,3.20
2017-05-17T16:41:15.491Z,2.40
2017-05-17T16:43:44.332Z,3.12
2017-05-17T16:46:13.177Z,5.48
2017-05-17T16:48:41.989Z,3.24
2017-05-17T16:51:10.805Z,2.98
2017-05-17T16:53:39.650Z,3.86
2017-05-17T16:56:08.478Z,3.22
2017-05-17T16:58:37.327Z,3.44
2017-05-17T17:01:06.186Z,3.32
2017-05-17T17:03:35.005Z,3.20
2017-05-17T17:06:03.833Z,5.02
2017-05-17T17:08:32.769Z,3.86
2017-05-17T17:11:01.579Z,3.56
2017-05-17T17:13:30.420Z,3.94
2017-05-17T17:15:59.261Z,4.28
2017-05-17T17:18:28.079Z,3.84
2017-05-17T17:20:56.902Z,4.60
2017-05-17T17:23:25.753Z,4.24
2017-05-17T17:25:54.575Z,4.30
2017-05-17T17:28:23.415Z,4.20
2017-05-17T17:30:52.271Z,3.90
2017-05-17T17:33:21.093Z,4.06
2017-05-17T17:35:49.941Z,8.08
2017-05-17T17:38:18.767Z,3.48
2017-05-17T17:40:47.583Z,3.58
2017-05-17T17:43:16.398Z,3.72
2017-05-17T17:45:45.235Z,3.58
2017-05-17T17:48:14.061Z,3.60
2017-05-17T17:50:42.884Z,3.92
2017-05-17T17:53:11.725Z,3.84
2017-05-17T17:55:40.543Z,4.30
2017-05-17T17:58:09.392Z,4.68
2017-05-17T18:00:38.298Z,4.76
2017-05-17T18:03:07.149Z,4.76
2017-05-17T18:05:35.969Z,4.50
2017-05-17T18:08:04.811Z,4.60
2017-05-17T18:10:33.628Z,3.82
2017-05-17T18:13:02.511Z,3.70
2017-05-17T18:15:31.367Z,5.66
2017-05-17T18:18:00.183Z,3.76
2017-05-17T18:20:29.017Z,4.42
2017-05-17T18:22:57.852Z,5.86
2017-05-17T18:25:26.664Z,4.36
2017-05-17T18:27:55.500Z,4.92
2017-05-17T18:30:24.331Z,4.72
2017-05-17T18:32:53.168Z,5.00
2017-05-17T18:35:22.011Z,4.86
2017-05-17T18:37:50.828Z,5.08
2017-05-17T18:40:19.677Z,5.42
2017-05-17T18:42:48.506Z,5.62
2017-05-17T18:45:17.349Z,5.18
2017-05-17T18:47:46.165Z,5.82
2017-05-17T18:50:15.005Z,5.82
2017-05-17T18:52:43.847Z,5.46
2017-05-17T18:55:12.693Z,6.46
2017-05-17T18:57:41.522Z,5.64
2017-05-17T19:00:10.368Z,6.02
2017-05-17T19:02:39.189Z,4.30
2017-05-17T19:05:08.050Z,6.44
2017-05-17T19:07:36.873Z,6.66
2017-05-17T19:10:05.687Z,6.40
2017-05-17T19:12:34.552Z,5.92
2017-05-17T19:15:03.377Z,6.52
2017-05-17T19:17:32.193Z,6.50
2017-05-17T19:20:01.045Z,6.80
2017-05-17T19:22:29.864Z,6.36
2017-05-17T19:24:58.691Z,6.50
2017-05-17T19:27:27.515Z,6.98
2017-05-17T19:29:56.353Z,7.60
2017-05-17T19:32:25.164Z,6.30
2017-05-17T19:34:54.015Z,5.96
2017-05-17T19:37:22.837Z,7.04
2017-05-17T19:39:51.694Z,5.50
2017-05-17T19:42:20.512Z,6.36
2017-05-17T19:44:49.332Z,6.74
2017-05-17T19:47:18.172Z,6.40
2017-05-17T19:49:47.002Z,7.20
2017-05-17T19:52:15.907Z,6.30
2017-05-17T19:54:44.770Z,6.72
2017-05-17T19:57:13.547Z,8.68
2017-05-17T19:59:42.384Z,6.80
2017-05-17T20:02:11.200Z,7.16
2017-05-17T20:04:40.050Z,6.42
2017-05-17T20:07:08.891Z,6.26
2017-05-17T20:09:37.986Z,5.40
2017-05-17T20:12:06.799Z,6.54
2017-05-17T20:14:35.641Z,6.34
2017-05-17T20:17:04.510Z,7.04
2017-05-17T20:19:33.339Z,6.96
2017-05-17T20:22:02.203Z,6.26
2017-05-17T20:24:31.032Z,6.40
2017-05-17T20:26:59.847Z,7.94
2017-05-17T20:29:28.671Z,6.72
2017-05-17T20:31:57.493Z,5.00
2017-05-17T20:34:26.316Z,6.84
2017-05-17T20:36:55.166Z,5.80
2017-05-17T20:39:24.012Z,6.18
2017-05-17T20:41:52.827Z,6.44
2017-05-17T20:44:21.676Z,5.94
2017-05-17T20:46:50.511Z,5.64
2017-05-17T20:49:19.327Z,4.84
2017-05-17T20:51:48.187Z,4.90
2017-05-17T20:54:17.029Z,5.90
2017-05-17T20:56:45.859Z,5.00
2017-05-17T20:59:14.694Z,8.40
2017-05-17T21:01:43.526Z,6.66
2017-05-17T21:04:12.348Z,5.24
2017-05-17T21:06:41.171Z,5.30
2017-05-17T21:09:10.012Z,6.90
2017-05-17T21:11:38.838Z,6.80
2017-05-17T21:14:07.678Z,7.60
2017-05-17T21:16:36.499Z,6.44
2017-05-17T21:19:05.348Z,7.08
2017-05-17T21:21:34.160Z,6.16
2017-05-17T21:24:03.091Z,6.64
2017-05-17T21:26:31.924Z,6.42
2017-05-17T21:29:00.757Z,5.32
2017-05-17T21:31:29.608Z,5.74
2017-05-17T21:33:58.424Z,5.52
2017-05-17T21:36:27.265Z,5.22
2017-05-17T21:38:56.110Z,6.56
2017-05-17T21:41:24.950Z,6.42
2017-05-17T21:43:53.782Z,6.16
2017-05-17T21:46:22.613Z,6.38
2017-05-17T21:48:51.443Z,6.06
2017-05-17T21:51:20.273Z,5.10
2017-05-17T21:53:49.088Z,6.20
2017-05-17T21:56:17.915Z,6.42
2017-05-17T21:58:46.750Z,5.60
2017-05-17T22:01:15.565Z,5.80
2017-05-17T22:03:44.384Z,6.30
2017-05-17T22:06:13.216Z,6.66
2017-05-17T22:08:42.070Z,7.78
2017-05-17T22:11:10.893Z,6.84
2017-05-17T22:13:39.708Z,7.10
2017-05-17T22:16:08.555Z,6.00
2017-05-17T22:18:37.375Z,6.44
2017-05-17T22:21:06.201Z,5.12
2017-05-17T22:23:35.043Z,6.80
2017-05-17T22:26:03.878Z,6.28
2017-05-17T22:28:32.730Z,6.60
2017-05-17T22:31:01.548Z,7.70
2017-05-17T22:33:30.383Z,7.58
2017-05-17T22:35:59.229Z,7.50
2017-05-17T22:38:28.060Z,7.92
2017-05-17T22:40:56.895Z,7.78
2017-05-17T22:43:25.728Z,8.10
2017-05-17T22:45:54.567Z,7.96
2017-05-17T22:48:23.397Z,8.30
2017-05-17T22:50:52.237Z,7.44
2017-05-17T22:53:21.068Z,7.66
2017-05-17T22:55:49.926Z,8.26
2017-05-17T22:58:18.760Z,9.22
2017-05-17T23:00:47.586Z,8.70
2017-05-17T23:03:16.430Z,7.80
2017-05-17T23:05:45.262Z,7.70
2017-05-17T23:08:14.106Z,7.98
2017-05-17T23:10:42.940Z,7.52
2017-05-17T23:13:11.787Z,6.36
2017-05-17T23:15:40.602Z,5.58
2017-05-17T23:18:09.453Z,6.30
2017-05-17T23:20:38.292Z,6.20
2017-05-17T23:23:07.118Z,8.50
2017-05-17T23:25:35.968Z,5.70
2017-05-17T23:28:04.788Z,8.00
2017-05-17T23:30:33.615Z,7.08
2017-05-17T23:33:02.444Z,7.02
2017-05-17T23:35:31.289Z,7.56
2017-05-17T23:38:00.143Z,8.68
2017-05-17T23:40:28.910Z,7.22
2017-05-17T23:42:57.751Z,7.62
2017-05-17T23:45:26.571Z,7.14
2017-05-17T23:47:55.407Z,7.12
2017-05-17T23:50:24.225Z,7.12
2017-05-17T23:52:53.063Z,7.98
2017-05-17T23:55:21.876Z,8.26
2017-05-17T23:57:50.695Z,8.82
